Flight Briefing for CMB856

Departure Arrival
Daniel K Inouye International Airport (PHNL)
Click to view FAA NOTAMS
Guam International Airport (PGUM)
Click to view FAA NOTAMS
Departure Time Arrival Time
N/A N/A
Aircraft Distance
B757-200SF 3303nm
Departure METAR Arrival METAR
PHNL 271053Z 00000KT 10SM FEW025 FEW045 25/19 A3003 RMK AO2 SLP168 T02500194 $ PGUM 271054Z 08004KT 10SM CLR 28/24 A2992 RMK AO2 SLP123 T02780239
Suggested Route
KEOLA2 KATHS HOOPA A450 DEWSS A450 UNZ


View recent IFR Routes data
Notes
USTRANSCOM CONTRACT FLIGHT | PAYLOAD RESTRICTED | ETOPS

Charts and Procedures

Charts for PHNL
No chart available
Charts for PGUM
No chart available

Windy.com Weather Map